Time;durP1;ratioP1;P1;durP2;ratioP2;P2;SDS_P1;SDS_P2;PMS_P1;PMS_P2;Temp;Humidity;BMP_temperature;BMP_pressure;BME280_temperature;BME280_humidity;BME280_pressure;Samples;Min_cycle;Max_cycle;Signal;HPM_P1;HPM_P2
2022/05/18 00:00:00;;;;;;;0.05;0.05;;;19.20;99.90;;;;;;5016834;28;20077;-67
2022/05/18 00:02:26;;;;;;;0.47;0.08;;;19.10;99.90;;;;;;5028657;28;20057;-67
2022/05/18 00:04:52;;;;;;;0.20;0.20;;;19.10;99.90;;;;;;5024502;28;20114;-66
2022/05/18 00:07:18;;;;;;;0.00;0.00;;;19.10;99.90;;;;;;5025943;28;20813;-67
2022/05/18 00:09:43;;;;;;;0.75;0.63;;;19.10;99.90;;;;;;5022518;28;20042;-67
2022/05/18 00:12:10;;;;;;;0.10;0.10;;;19.10;99.90;;;;;;5029624;28;20116;-67
2022/05/18 00:14:36;;;;;;;0.73;0.73;;;19.10;99.90;;;;;;5023180;28;20133;-66
2022/05/18 00:17:03;;;;;;;0.22;0.10;;;19.10;99.90;;;;;;5026479;28;20882;-67
2022/05/18 00:19:32;;;;;;;0.13;0.13;;;19.00;99.90;;;;;;5026985;28;20037;-66
2022/05/18 00:21:58;;;;;;;0.98;0.32;;;19.00;99.90;;;;;;5015944;28;20501;-66
2022/05/18 00:24:24;;;;;;;0.13;0.13;;;18.90;99.90;;;;;;5016140;28;21744;-67
2022/05/18 00:26:50;;;;;;;1.13;0.47;;;18.90;99.90;;;;;;5019792;28;20081;-66
2022/05/18 00:29:16;;;;;;;0.52;0.40;;;19.00;99.90;;;;;;5028839;28;20084;-66
2022/05/18 00:31:41;;;;;;;0.10;0.10;;;19.00;99.90;;;;;;5020906;28;20041;-66
2022/05/18 00:34:08;;;;;;;0.00;0.00;;;18.90;99.90;;;;;;5024986;28;20045;-66
2022/05/18 00:36:35;;;;;;;0.00;0.00;;;18.90;99.90;;;;;;5030108;28;20053;-66
2022/05/18 00:39:00;;;;;;;0.22;0.20;;;18.90;99.90;;;;;;5013076;28;20595;-66
2022/05/18 00:41:27;;;;;;;0.00;0.00;;;18.90;99.90;;;;;;5022842;28;20037;-66
2022/05/18 00:43:54;;;;;;;0.10;0.10;;;18.70;99.90;;;;;;5024808;28;20080;-66
2022/05/18 00:46:20;;;;;;;0.00;0.00;;;18.70;99.90;;;;;;5025933;28;20053;-66
2022/05/18 00:48:46;;;;;;;0.70;0.35;;;18.60;99.90;;;;;;5014449;28;20117;-66
2022/05/18 00:51:31;;;;;;;0.15;0.15;;;18.60;99.90;;;;;;5029358;28;20133;-66
2022/05/18 00:54:06;;;;;;;0.10;0.10;;;18.50;99.90;;;;;;5017014;28;20053;-66
2022/05/18 00:56:49;;;;;;;0.00;0.00;;;18.50;99.90;;;;;;5023175;28;20046;-66
2022/05/18 00:59:20;;;;;;;;;;;18.50;99.90;;;;;;5024047;28;20127;-66
2022/05/18 01:01:46;;;;;;;0.10;0.10;;;18.40;99.90;;;;;;5023621;28;19928;-66
2022/05/18 01:04:14;;;;;;;0.00;0.00;;;18.40;99.90;;;;;;5016845;28;20042;-66
2022/05/18 01:07:05;;;;;;;0.00;0.00;;;18.40;99.90;;;;;;5026560;28;20763;-66
2022/05/18 01:09:37;;;;;;;0.10;0.10;;;18.40;99.90;;;;;;5024322;28;20054;-66
2022/05/18 01:12:08;;;;;;;1.95;1.00;;;18.40;99.90;;;;;;5017620;28;20135;-66
2022/05/18 01:14:39;;;;;;;5.95;1.45;;;18.30;99.90;;;;;;5025347;28;20042;-66
2022/05/18 01:17:05;;;;;;;0.10;0.10;;;18.40;99.90;;;;;;5029030;28;20392;-66
2022/05/18 01:19:45;;;;;;;0.00;0.00;;;18.20;99.90;;;;;;5022594;28;20117;-66
2022/05/18 01:22:42;;;;;;;0.55;0.45;;;18.20;99.90;;;;;;5022620;28;20168;-66
2022/05/18 01:25:38;;;;;;;0.08;0.08;;;18.20;99.90;;;;;;5015168;28;20188;-66
2022/05/18 01:28:06;;;;;;;0.45;0.45;;;18.20;99.90;;;;;;5018315;28;20076;-66
2022/05/18 01:30:34;;;;;;;0.20;0.20;;;18.20;99.90;;;;;;5026809;28;20057;-66
2022/05/18 01:33:04;;;;;;;0.00;0.00;;;18.10;99.90;;;;;;5017071;28;20052;-66
2022/05/18 01:35:31;;;;;;;1.85;0.73;;;18.10;99.90;;;;;;5020505;28;20034;-66
2022/05/18 01:37:59;;;;;;;0.80;0.28;;;18.00;99.90;;;;;;5010484;28;20053;-67
2022/05/18 01:41:05;;;;;;;2.05;0.43;;;18.00;99.90;;;;;;5024972;28;20152;-66
2022/05/18 01:43:48;;;;;;;0.00;0.00;;;18.10;99.90;;;;;;5022715;28;20117;-66
2022/05/18 01:46:16;;;;;;;0.15;0.15;;;18.10;99.90;;;;;;5022093;28;20081;-66
2022/05/18 01:48:46;;;;;;;0.80;0.25;;;18.20;99.90;;;;;;5028117;28;20141;-66
2022/05/18 01:51:17;;;;;;;1.13;0.70;;;18.20;99.90;;;;;;5021854;28;20127;-66
2022/05/18 01:53:43;;;;;;;0.32;0.25;;;18.10;99.90;;;;;;5022637;28;20107;-66
2022/05/18 01:56:08;;;;;;;2.90;1.58;;;18.10;99.90;;;;;;5021650;28;20508;-67
2022/05/18 01:58:34;;;;;;;0.00;0.00;;;18.10;99.90;;;;;;5009297;28;20093;-67
2022/05/18 02:01:02;;;;;;;0.20;0.20;;;18.00;99.90;;;;;;5028680;28;20132;-67
2022/05/18 02:03:28;;;;;;;0.00;0.00;;;18.00;99.90;;;;;;5012523;28;20042;-66
2022/05/18 02:05:54;;;;;;;0.08;0.08;;;18.00;99.90;;;;;;5024855;28;20041;-67
2022/05/18 02:08:22;;;;;;;0.17;0.17;;;17.90;99.90;;;;;;5013980;28;20042;-67
2022/05/18 02:10:48;;;;;;;0.10;0.10;;;17.80;99.90;;;;;;5028960;28;20084;-67
2022/05/18 02:13:14;;;;;;;0.90;0.82;;;17.90;99.90;;;;;;5016276;28;20046;-67
2022/05/18 02:15:40;;;;;;;0.00;0.00;;;17.80;99.90;;;;;;5024160;28;20048;-67
2022/05/18 02:18:05;;;;;;;0.30;0.30;;;17.80;99.90;;;;;;5016202;28;20038;-67
2022/05/18 02:20:31;;;;;;;4.38;2.85;;;17.70;99.90;;;;;;5021066;28;20444;-67
2022/05/18 02:22:57;;;;;;;0.10;0.10;;;17.70;99.90;;;;;;5029149;28;20464;-67
2022/05/18 02:25:23;;;;;;;0.20;0.20;;;17.60;99.90;;;;;;5026540;28;20432;-67
2022/05/18 02:27:50;;;;;;;0.20;0.20;;;17.60;99.90;;;;;;5013319;28;20565;-67
2022/05/18 02:30:16;;;;;;;0.20;0.20;;;17.60;99.90;;;;;;5015139;28;20051;-67
2022/05/18 02:32:42;;;;;;;7.50;0.55;;;17.60;99.90;;;;;;5028237;28;20049;-67
2022/05/18 02:35:08;;;;;;;0.32;0.22;;;17.50;99.90;;;;;;5022691;28;20037;-67
2022/05/18 02:37:34;;;;;;;0.30;0.30;;;17.70;99.90;;;;;;5023035;28;20068;-67
2022/05/18 02:39:59;;;;;;;0.15;0.15;;;17.60;99.90;;;;;;5019397;28;20084;-67
2022/05/18 02:42:25;;;;;;;0.75;0.47;;;17.50;99.90;;;;;;5020194;28;20069;-67
2022/05/18 02:44:51;;;;;;;0.38;0.20;;;17.50;99.90;;;;;;5027847;28;20049;-67
2022/05/18 02:47:18;;;;;;;0.28;0.28;;;17.50;99.90;;;;;;5020316;28;20049;-68
2022/05/18 02:49:44;;;;;;;0.25;0.25;;;17.50;99.90;;;;;;5019565;28;20085;-67
2022/05/18 02:52:10;;;;;;;0.65;0.57;;;17.40;99.90;;;;;;5017830;28;20069;-67
2022/05/18 02:57:20;;;;;;;0.15;0.15;;;17.30;99.90;;;;;;5018866;28;20108;-67
2022/05/18 02:59:46;;;;;;;9.85;2.08;;;17.40;99.90;;;;;;5015547;28;20449;-67
2022/05/18 03:02:12;;;;;;;0.25;0.22;;;17.30;99.90;;;;;;5022447;28;20049;-67
2022/05/18 03:04:38;;;;;;;0.17;0.17;;;17.30;99.90;;;;;;5020936;28;20045;-67
2022/05/18 03:07:03;;;;;;;1.05;0.32;;;17.30;99.90;;;;;;5019298;28;20780;-67
2022/05/18 03:09:30;;;;;;;0.30;0.30;;;17.30;99.90;;;;;;5022788;28;20501;-67
2022/05/18 03:11:56;;;;;;;0.00;0.00;;;17.20;99.90;;;;;;5026254;28;20049;-67
2022/05/18 03:14:22;;;;;;;0.13;0.13;;;17.20;99.90;;;;;;5018241;28;20507;-67
2022/05/18 03:16:48;;;;;;;0.00;0.00;;;17.30;99.90;;;;;;5027308;28;20103;-67
2022/05/18 03:19:14;;;;;;;0.10;0.10;;;17.20;99.90;;;;;;5014524;28;20050;-68
2022/05/18 03:24:25;;;;;;;0.08;0.08;;;17.20;99.90;;;;;;5025088;28;20054;-67
2022/05/18 03:26:51;;;;;;;7.32;1.95;;;17.20;99.90;;;;;;5023588;28;20046;-67
2022/05/18 03:29:17;;;;;;;0.00;0.00;;;17.10;99.90;;;;;;5007710;28;20123;-67
2022/05/18 03:31:44;;;;;;;0.65;0.43;;;17.20;99.90;;;;;;5020494;28;20053;-67
2022/05/18 03:34:10;;;;;;;0.28;0.28;;;17.20;99.90;;;;;;5018002;28;20042;-67
2022/05/18 03:36:36;;;;;;;0.13;0.13;;;17.20;99.90;;;;;;5027401;28;20091;-67
2022/05/18 03:39:03;;;;;;;0.10;0.10;;;17.20;99.90;;;;;;5029574;28;20048;-67
2022/05/18 03:41:29;;;;;;;0.10;0.10;;;17.20;99.90;;;;;;5028052;28;20060;-67
2022/05/18 03:43:55;;;;;;;0.10;0.10;;;17.20;99.90;;;;;;5022738;28;20029;-67
2022/05/18 03:46:21;;;;;;;0.10;0.10;;;17.10;99.90;;;;;;5031230;28;20132;-67
2022/05/18 03:48:46;;;;;;;1.65;0.55;;;17.10;99.90;;;;;;5031510;28;20124;-67
2022/05/18 03:51:14;;;;;;;0.20;0.20;;;17.20;99.90;;;;;;5019329;28;20164;-67
2022/05/18 03:53:40;;;;;;;0.38;0.38;;;17.20;99.90;;;;;;5018602;28;20120;-67
2022/05/18 03:56:06;;;;;;;0.35;0.30;;;17.20;99.90;;;;;;5028811;28;20049;-68
2022/05/18 03:58:32;;;;;;;0.25;0.25;;;17.20;99.90;;;;;;5029858;28;20756;-67
2022/05/18 04:01:01;;;;;;;1.75;1.10;;;17.10;99.90;;;;;;5017768;28;20048;-68
2022/05/18 04:03:29;;;;;;;0.10;0.10;;;17.20;99.90;;;;;;5019900;28;20045;-67
2022/05/18 04:05:55;;;;;;;0.10;0.10;;;17.20;99.90;;;;;;5023449;28;20073;-67
2022/05/18 04:08:21;;;;;;;0.30;0.30;;;17.20;99.90;;;;;;5027778;28;20041;-67
2022/05/18 04:10:47;;;;;;;0.10;0.10;;;17.20;99.90;;;;;;5027911;28;20072;-67
2022/05/18 04:13:20;;;;;;;0.25;0.25;;;17.20;99.90;;;;;;5019661;28;20059;-67
2022/05/18 04:15:45;;;;;;;;;;;17.20;99.90;;;;;;5030468;28;20052;-67
2022/05/18 04:18:11;;;;;;;0.47;0.47;;;17.20;99.90;;;;;;5017679;28;20024;-67
2022/05/18 04:20:38;;;;;;;0.00;0.00;;;17.20;99.90;;;;;;5018156;28;20037;-67
2022/05/18 04:23:04;;;;;;;0.40;0.40;;;17.30;99.90;;;;;;5019561;28;20045;-67
2022/05/18 04:25:30;;;;;;;0.52;0.50;;;17.20;99.90;;;;;;5026796;28;20056;-67
2022/05/18 04:27:56;;;;;;;0.10;0.10;;;17.20;99.90;;;;;;5029056;28;20048;-67
2022/05/18 04:30:26;;;;;;;0.00;0.00;;;17.20;99.90;;;;;;5023443;28;20485;-67
2022/05/18 04:32:52;;;;;;;0.10;0.10;;;17.30;99.90;;;;;;5020792;28;20049;-67
2022/05/18 04:35:20;;;;;;;0.10;0.10;;;17.30;99.90;;;;;;5028256;28;20129;-67
2022/05/18 04:37:46;;;;;;;0.20;0.20;;;17.30;99.90;;;;;;5029664;28;20052;-67
2022/05/18 04:40:12;;;;;;;0.75;0.75;;;17.30;99.90;;;;;;5019016;28;20129;-67
2022/05/18 04:42:38;;;;;;;0.40;0.40;;;17.40;99.90;;;;;;5021186;28;20121;-67
2022/05/18 04:45:05;;;;;;;0.10;0.10;;;17.30;99.90;;;;;;5028275;28;20140;-67
2022/05/18 04:47:31;;;;;;;0.38;0.15;;;17.20;99.90;;;;;;5010515;28;20124;-67
2022/05/18 04:49:57;;;;;;;0.77;0.75;;;17.30;99.90;;;;;;5026235;28;20125;-67
2022/05/18 04:52:23;;;;;;;1.38;0.75;;;17.20;99.90;;;;;;5026015;28;20491;-67
2022/05/18 04:54:49;;;;;;;0.75;0.55;;;17.20;99.90;;;;;;5030104;28;20050;-67
2022/05/18 04:57:16;;;;;;;0.20;0.20;;;17.20;99.90;;;;;;5025311;28;20464;-67
2022/05/18 04:59:42;;;;;;;0.08;0.08;;;17.20;99.90;;;;;;5024469;28;20449;-67
2022/05/18 05:02:08;;;;;;;0.88;0.88;;;17.10;99.90;;;;;;5023646;28;20060;-67
2022/05/18 05:04:35;;;;;;;4.90;0.55;;;17.20;99.90;;;;;;5026888;28;20042;-67
2022/05/18 05:07:01;;;;;;;0.57;0.40;;;17.20;99.90;;;;;;5028202;28;20045;-67
2022/05/18 05:09:26;;;;;;;0.20;0.20;;;17.20;99.90;;;;;;5017614;28;20110;-67
2022/05/18 05:11:53;;;;;;;0.00;0.00;;;17.20;99.90;;;;;;5021974;28;20068;-67
2022/05/18 05:14:20;;;;;;;0.28;0.28;;;17.30;99.90;;;;;;5026111;28;20045;-67
2022/05/18 05:16:45;;;;;;;0.80;0.47;;;17.30;99.90;;;;;;5029171;28;20044;-67
2022/05/18 05:19:11;;;;;;;0.43;0.38;;;17.30;99.90;;;;;;5023210;28;20050;-67
2022/05/18 05:21:42;;;;;;;0.15;0.15;;;17.40;99.90;;;;;;5011401;28;20077;-67
2022/05/18 05:24:09;;;;;;;0.10;0.10;;;17.40;99.90;;;;;;5024719;28;20048;-67
2022/05/18 05:26:35;;;;;;;0.65;0.60;;;17.40;99.90;;;;;;5017800;28;20124;-67
2022/05/18 05:29:01;;;;;;;5.88;1.05;;;17.50;99.90;;;;;;5026993;28;20116;-67
2022/05/18 05:31:27;;;;;;;0.75;0.25;;;17.50;99.90;;;;;;5019958;28;20050;-67
2022/05/18 05:33:52;;;;;;;0.10;0.10;;;17.60;99.90;;;;;;5027722;28;20041;-67
2022/05/18 05:36:19;;;;;;;0.85;0.38;;;17.70;99.90;;;;;;5018605;28;20049;-67
2022/05/18 05:38:45;;;;;;;2.53;0.75;;;17.80;99.90;;;;;;5024120;28;20085;-67
2022/05/18 05:41:11;;;;;;;0.73;0.45;;;17.90;99.90;;;;;;5024761;28;20073;-67
2022/05/18 05:43:36;;;;;;;0.20;0.20;;;18.00;99.90;;;;;;5015273;28;20045;-67
2022/05/18 05:46:09;;;;;;;1.08;1.02;;;18.10;99.90;;;;;;5021491;28;20121;-67
2022/05/18 05:48:35;;;;;;;0.10;0.10;;;18.10;99.90;;;;;;5027195;28;20411;-67
2022/05/18 05:51:02;;;;;;;3.17;2.90;;;18.10;99.90;;;;;;5013894;28;20054;-67
2022/05/18 05:53:28;;;;;;;1.17;0.57;;;18.10;99.90;;;;;;5023669;28;20571;-66
2022/05/18 05:55:54;;;;;;;0.10;0.10;;;18.10;99.90;;;;;;5016168;28;20123;-66
2022/05/18 05:58:20;;;;;;;0.63;0.63;;;18.10;99.90;;;;;;5017738;28;20088;-67
2022/05/18 06:00:46;;;;;;;0.10;0.10;;;18.20;99.90;;;;;;5028433;28;20095;-66
2022/05/18 06:03:16;;;;;;;0.32;0.32;;;18.20;99.90;;;;;;5022333;28;20415;-66
2022/05/18 06:05:42;;;;;;;0.63;0.25;;;18.20;99.90;;;;;;5022307;28;20034;-66
2022/05/18 06:08:08;;;;;;;0.63;0.63;;;18.30;99.90;;;;;;5025372;28;20099;-66
2022/05/18 06:10:34;;;;;;;0.10;0.10;;;18.30;99.90;;;;;;5015292;28;20127;-66
2022/05/18 06:13:08;;;;;;;0.32;0.32;;;18.40;99.90;;;;;;5023323;28;20127;-66
2022/05/18 06:15:34;;;;;;;1.55;1.42;;;18.40;99.90;;;;;;5026346;28;20374;-66
2022/05/18 06:17:59;;;;;;;0.32;0.32;;;18.50;99.90;;;;;;5020600;28;20068;-66
2022/05/18 06:20:25;;;;;;;0.57;0.38;;;18.50;99.90;;;;;;5014310;28;20060;-67
2022/05/18 06:22:50;;;;;;;0.00;0.00;;;18.60;99.90;;;;;;5022438;28;20038;-65
2022/05/18 06:25:18;;;;;;;0.08;0.08;;;18.70;99.90;;;;;;5011655;28;20053;-66
2022/05/18 06:27:44;;;;;;;0.10;0.10;;;18.70;99.90;;;;;;5022355;28;20041;-66
2022/05/18 06:30:15;;;;;;;0.00;0.00;;;18.80;99.90;;;;;;5025487;28;20536;-66
2022/05/18 06:32:41;;;;;;;1.20;0.90;;;18.90;99.90;;;;;;5025280;28;20049;-66
2022/05/18 06:35:07;;;;;;;0.63;0.63;;;19.00;99.90;;;;;;5020743;28;20053;-66
2022/05/18 06:37:33;;;;;;;0.10;0.10;;;19.00;99.90;;;;;;5020840;28;20034;-65
2022/05/18 06:39:59;;;;;;;0.47;0.30;;;19.10;99.90;;;;;;5011105;28;20132;-66
2022/05/18 06:42:24;;;;;;;8.23;1.00;;;19.30;99.90;;;;;;5023202;28;20033;-66
2022/05/18 06:44:50;;;;;;;0.30;0.30;;;19.40;99.90;;;;;;5028018;28;20107;-66
2022/05/18 06:47:17;;;;;;;0.00;0.00;;;19.50;99.90;;;;;;5020096;28;20060;-66
2022/05/18 06:49:43;;;;;;;0.30;0.30;;;19.50;99.90;;;;;;5016075;28;20046;-66
2022/05/18 06:52:09;;;;;;;0.43;0.35;;;19.50;99.90;;;;;;5024127;28;20477;-66
2022/05/18 06:54:35;;;;;;;0.10;0.10;;;19.50;99.90;;;;;;5015819;28;20040;-66
2022/05/18 06:57:02;;;;;;;0.10;0.10;;;19.60;99.90;;;;;;5020631;28;20050;-66
2022/05/18 06:59:27;;;;;;;0.80;0.75;;;19.70;99.90;;;;;;5015829;28;20052;-66
2022/05/18 07:01:53;;;;;;;0.45;0.45;;;19.70;99.90;;;;;;5017654;28;20053;-66
2022/05/18 07:04:18;;;;;;;0.20;0.20;;;19.80;99.90;;;;;;5026269;28;20124;-66
2022/05/18 07:06:45;;;;;;;0.80;0.80;;;19.80;99.90;;;;;;5026653;28;20180;-66
2022/05/18 07:09:17;;;;;;;0.10;0.10;;;19.80;99.90;;;;;;5015345;28;20038;-66
2022/05/18 07:11:45;;;;;;;0.20;0.20;;;19.90;99.90;;;;;;5011604;28;20046;-66
2022/05/18 07:14:12;;;;;;;0.10;0.10;;;20.00;99.90;;;;;;5023929;28;20045;-66
2022/05/18 07:16:40;;;;;;;0.30;0.30;;;20.10;99.90;;;;;;5012147;28;20045;-66
2022/05/18 07:19:06;;;;;;;2.30;1.08;;;20.30;99.90;;;;;;5027051;28;20092;-66
2022/05/18 07:21:32;;;;;;;0.13;0.13;;;20.30;99.90;;;;;;5026898;28;20085;-65
2022/05/18 07:23:57;;;;;;;0.30;0.30;;;20.30;99.90;;;;;;5025428;28;20046;-66
2022/05/18 07:26:25;;;;;;;0.03;0.03;;;20.40;99.90;;;;;;5013612;28;20064;-66
2022/05/18 07:28:50;;;;;;;0.55;0.55;;;20.40;99.90;;;;;;5013845;28;20760;-66
2022/05/18 07:31:17;;;;;;;1.20;1.10;;;20.50;99.90;;;;;;5018684;28;20038;-66
2022/05/18 07:33:43;;;;;;;0.65;0.55;;;20.50;99.90;;;;;;5018799;28;20053;-66
2022/05/18 07:36:08;;;;;;;0.38;0.38;;;20.50;99.90;;;;;;5008610;28;20046;-66
2022/05/18 07:38:34;;;;;;;0.50;0.45;;;20.60;99.90;;;;;;5027183;28;20049;-66
2022/05/18 07:41:01;;;;;;;13.65;1.30;;;20.70;99.90;;;;;;5022147;28;20044;-66
2022/05/18 07:43:27;;;;;;;1.67;0.20;;;20.70;99.90;;;;;;5009546;28;20115;-66
2022/05/18 07:45:54;;;;;;;1.55;0.85;;;20.70;99.90;;;;;;5014912;28;20584;-66
2022/05/18 07:48:21;;;;;;;6.65;0.47;;;20.70;99.90;;;;;;5010783;28;20038;-66
2022/05/18 07:50:46;;;;;;;0.35;0.35;;;20.70;99.90;;;;;;5020652;28;20132;-66
2022/05/18 07:53:12;;;;;;;0.10;0.10;;;20.70;99.90;;;;;;5025368;28;20131;-66
2022/05/18 07:55:38;;;;;;;0.88;0.80;;;20.80;99.90;;;;;;5005791;28;20045;-66
2022/05/18 07:58:05;;;;;;;1.42;0.90;;;20.90;99.90;;;;;;5017735;28;20045;-66
2022/05/18 08:00:31;;;;;;;1.45;1.25;;;21.00;99.90;;;;;;5018944;28;20057;-66
2022/05/18 08:02:57;;;;;;;0.90;0.90;;;21.00;99.90;;;;;;5015428;28;20092;-66
2022/05/18 08:05:22;;;;;;;0.65;0.65;;;21.10;99.90;;;;;;5026155;28;20073;-66
2022/05/18 08:07:49;;;;;;;2.15;1.42;;;21.10;99.90;;;;;;5023134;28;20045;-66
2022/05/18 08:15:49;;;;;;;0.17;0.17;;;21.40;99.90;;;;;;5016427;28;20056;-66
2022/05/18 08:18:16;;;;;;;0.73;0.35;;;21.50;99.90;;;;;;5010920;28;20045;-66
2022/05/18 08:20:44;;;;;;;1.05;0.52;;;21.60;99.90;;;;;;5012462;28;20582;-66
2022/05/18 08:23:10;;;;;;;0.20;0.20;;;21.60;99.90;;;;;;5023178;28;20034;-66
2022/05/18 08:25:35;;;;;;;2.25;1.40;;;21.70;99.90;;;;;;5022517;28;20041;-66
2022/05/18 08:28:02;;;;;;;0.77;0.77;;;21.70;99.90;;;;;;5023326;28;20041;-66
2022/05/18 08:30:31;;;;;;;2.45;1.02;;;21.80;99.90;;;;;;5016478;28;20494;-66
2022/05/18 08:32:58;;;;;;;0.50;0.50;;;21.80;99.90;;;;;;5020882;28;20373;-66
2022/05/18 08:35:28;;;;;;;0.57;0.38;;;21.80;99.90;;;;;;5018786;28;20038;-66
2022/05/18 08:37:54;;;;;;;1.20;0.90;;;21.80;99.90;;;;;;5025915;28;20419;-66
2022/05/18 08:40:29;;;;;;;0.22;0.22;;;21.80;99.90;;;;;;5029096;28;20053;-66
2022/05/18 08:43:00;;;;;;;0.10;0.10;;;22.00;99.90;;;;;;5016222;28;20041;-66
2022/05/18 08:45:29;;;;;;;0.63;0.63;;;22.00;99.90;;;;;;5014357;28;20056;-66
2022/05/18 08:48:01;;;;;;;0.40;0.40;;;22.00;99.90;;;;;;5018748;28;20037;-66
2022/05/18 08:50:27;;;;;;;0.20;0.20;;;22.10;99.90;;;;;;5016003;28;20061;-66
2022/05/18 08:53:28;;;;;;;0.40;0.40;;;22.10;99.90;;;;;;5014008;28;20103;-66
2022/05/18 08:56:13;;;;;;;0.40;0.40;;;22.10;99.90;;;;;;5028518;28;20068;-66
2022/05/18 08:58:45;;;;;;;0.73;0.73;;;22.20;99.90;;;;;;5030411;28;20057;-66
2022/05/18 09:01:40;;;;;;;0.55;0.55;;;22.30;99.90;;;;;;5022483;28;20046;-66
2022/05/18 09:04:43;;;;;;;0.15;0.15;;;22.50;99.90;;;;;;5017440;28;20041;-66
2022/05/18 09:07:13;;;;;;;0.63;0.63;;;22.60;99.90;;;;;;5027931;28;20165;-66
2022/05/18 09:12:36;;;;;;;0.00;0.00;;;22.70;99.90;;;;;;5027615;28;20053;-67
2022/05/18 09:15:03;;;;;;;0.80;0.80;;;22.60;99.90;;;;;;5015425;28;20049;-66
2022/05/18 09:17:36;;;;;;;0.75;0.75;;;22.50;99.90;;;;;;5021732;28;20124;-66
2022/05/18 09:20:22;;;;;;;0.00;0.00;;;22.50;99.90;;;;;;5020728;28;20038;-66
2022/05/18 09:23:22;;;;;;;0.38;0.38;;;22.50;99.90;;;;;;5015850;28;20395;-66
2022/05/18 09:26:31;;;;;;;1.00;1.00;;;22.50;99.90;;;;;;5025916;28;20114;-66
2022/05/18 09:29:16;;;;;;;0.68;0.68;;;22.50;99.90;;;;;;5013773;28;20457;-66
2022/05/18 09:32:23;;;;;;;0.95;0.57;;;22.50;99.90;;;;;;5023259;28;20072;-66
2022/05/18 09:35:13;;;;;;;0.98;0.85;;;22.60;99.90;;;;;;5019762;28;20049;-66
2022/05/18 09:37:44;;;;;;;0.80;0.77;;;22.80;99.90;;;;;;5012766;28;20054;-66
2022/05/18 09:40:18;;;;;;;1.88;1.20;;;23.00;99.90;;;;;;5019541;28;20360;-66
2022/05/18 09:42:55;;;;;;;1.08;1.08;;;23.30;99.90;;;;;;5010368;28;20053;-66
2022/05/18 09:45:25;;;;;;;0.68;0.68;;;23.30;99.90;;;;;;5017358;28;20033;-67
2022/05/18 09:47:59;;;;;;;1.38;1.27;;;22.90;99.90;;;;;;5018431;28;20412;-66
2022/05/18 09:50:26;;;;;;;0.43;0.43;;;23.00;99.90;;;;;;5027078;28;20103;-65
2022/05/18 09:52:52;;;;;;;1.02;0.57;;;22.90;99.90;;;;;;5015545;28;20091;-65
2022/05/18 09:55:20;;;;;;;0.75;0.55;;;22.90;99.90;;;;;;5021053;28;20033;-65
2022/05/18 09:58:03;;;;;;;0.55;0.55;;;22.80;99.90;;;;;;5024846;28;20081;-66
2022/05/18 10:00:32;;;;;;;3.47;1.20;;;22.80;99.90;;;;;;5010895;28;20076;-68
2022/05/18 10:08:57;;;;;;;0.30;0.30;;;22.80;99.90;;;;;;5023241;28;20504;-67
2022/05/18 10:11:30;;;;;;;1.67;1.58;;;23.30;99.90;;;;;;5027090;28;20046;-67
2022/05/18 10:14:01;;;;;;;;;;;23.70;99.90;;;;;;5014414;28;20497;-67
2022/05/18 10:16:41;;;;;;;0.47;0.47;;;23.90;99.90;;;;;;5017403;28;20521;-67
2022/05/18 10:19:23;;;;;;;0.10;0.10;;;23.60;99.90;;;;;;5024572;28;20099;-68
2022/05/18 10:21:53;;;;;;;0.38;0.35;;;23.50;99.90;;;;;;5018188;28;20457;-68
2022/05/18 10:24:27;;;;;;;1.45;0.90;;;23.30;99.90;;;;;;5019911;28;20042;-68
2022/05/18 10:27:16;;;;;;;0.30;0.30;;;23.20;99.90;;;;;;5021278;28;20046;-66
2022/05/18 10:30:01;;;;;;;1.35;0.38;;;23.30;99.90;;;;;;5022577;28;20424;-67
2022/05/18 10:32:27;;;;;;;0.20;0.20;;;23.50;99.90;;;;;;5027068;28;20056;-68
2022/05/18 10:34:54;;;;;;;0.15;0.15;;;23.40;99.90;;;;;;5021744;28;20096;-68
2022/05/18 10:37:35;;;;;;;1.55;0.30;;;23.30;99.90;;;;;;5017974;28;20045;-68
2022/05/18 10:40:08;;;;;;;2.97;0.38;;;23.20;99.90;;;;;;5021458;28;20116;-68
2022/05/18 10:42:50;;;;;;;2.15;1.95;;;23.10;99.90;;;;;;5010140;28;20048;-68
2022/05/18 10:45:34;;;;;;;1.45;0.75;;;22.90;99.90;;;;;;5017021;28;20049;-68
2022/05/18 10:48:21;;;;;;;0.65;0.60;;;22.80;99.90;;;;;;5008229;28;20045;-68
2022/05/18 10:50:48;;;;;;;3.35;1.85;;;22.80;99.90;;;;;;5013264;28;20033;-68
2022/05/18 10:53:15;;;;;;;0.10;0.10;;;22.80;99.90;;;;;;5011921;28;20188;-67
2022/05/18 10:56:12;;;;;;;0.40;0.40;;;22.90;99.90;;;;;;5024901;28;20083;-67
2022/05/18 10:58:40;;;;;;;0.15;0.15;;;22.90;99.90;;;;;;5019631;28;20144;-67
2022/05/18 11:01:22;;;;;;;0.55;0.52;;;22.80;99.90;;;;;;5011068;28;20058;-68
2022/05/18 11:03:53;;;;;;;0.20;0.13;;;22.80;99.90;;;;;;5020805;28;20547;-68
2022/05/18 11:06:29;;;;;;;1.13;0.43;;;22.80;99.90;;;;;;5026816;28;20433;-67
2022/05/18 11:09:15;;;;;;;1.35;0.45;;;22.80;99.90;;;;;;5018796;28;20041;-68
2022/05/18 11:11:49;;;;;;;0.28;0.28;;;22.80;99.90;;;;;;5023490;28;20033;-68
2022/05/18 11:14:20;;;;;;;0.35;0.35;;;22.80;99.90;;;;;;5021014;28;20481;-68
2022/05/18 11:17:13;;;;;;;0.47;0.47;;;23.20;99.90;;;;;;5026466;28;20400;-68
2022/05/18 11:19:53;;;;;;;1.08;0.98;;;23.50;99.90;;;;;;5012295;28;20050;-68
2022/05/18 11:22:32;;;;;;;0.20;0.20;;;23.20;99.90;;;;;;5014125;28;20120;-68
2022/05/18 11:25:43;;;;;;;0.95;0.52;;;23.70;99.90;;;;;;5027915;28;20049;-68
2022/05/18 11:28:40;;;;;;;0.65;0.65;;;24.20;99.90;;;;;;5022765;28;20041;-68
2022/05/18 11:31:34;;;;;;;2.33;0.85;;;24.40;99.90;;;;;;5012261;28;20053;-68
2022/05/18 11:34:28;;;;;;;2.55;2.22;;;24.30;99.90;;;;;;5014214;28;20104;-68
2022/05/18 11:37:24;;;;;;;1.00;1.00;;;24.50;99.90;;;;;;5014422;28;20057;-68
2022/05/18 11:40:10;;;;;;;2.10;1.90;;;24.50;99.90;;;;;;5018237;28;20048;-68
2022/05/18 11:42:51;;;;;;;0.30;0.20;;;25.00;99.90;;;;;;5028720;28;20513;-68
2022/05/18 11:45:41;;;;;;;1.77;1.10;;;24.90;99.90;;;;;;5018543;28;20367;-68
2022/05/18 11:48:30;;;;;;;1.15;0.65;;;24.70;99.90;;;;;;5020433;28;20052;-67
2022/05/18 11:51:28;;;;;;;1.73;1.27;;;24.80;99.90;;;;;;5013807;28;20072;-67
2022/05/18 11:54:30;;;;;;;0.63;0.40;;;24.80;99.90;;;;;;5023572;28;20061;-67
2022/05/18 11:57:15;;;;;;;0.10;0.10;;;24.70;99.90;;;;;;5020491;28;20087;-68
2022/05/18 11:59:52;;;;;;;0.88;0.55;;;24.50;99.90;;;;;;5019080;28;20056;-68
2022/05/18 12:02:25;;;;;;;0.10;0.10;;;24.30;99.90;;;;;;5028146;28;20088;-68
2022/05/18 12:05:16;;;;;;;0.90;0.47;;;24.30;99.90;;;;;;5023423;28;20041;-68
2022/05/18 12:07:57;;;;;;;1.05;0.82;;;24.10;99.90;;;;;;5029498;28;20037;-68
2022/05/18 12:10:44;;;;;;;0.82;0.82;;;24.20;99.90;;;;;;5020341;28;20132;-68
2022/05/18 12:13:25;;;;;;;0.00;0.00;;;24.20;99.90;;;;;;5018127;28;20053;-67
2022/05/18 12:16:17;;;;;;;2.13;1.27;;;24.20;99.90;;;;;;5009236;28;20054;-67
2022/05/18 12:18:49;;;;;;;0.55;0.32;;;24.30;99.90;;;;;;5021954;28;20180;-68
2022/05/18 12:21:22;;;;;;;0.17;0.17;;;24.40;99.90;;;;;;5022783;28;20060;-68
2022/05/18 12:23:53;;;;;;;0.43;0.43;;;24.30;99.90;;;;;;5023850;28;20431;-68
2022/05/18 12:26:21;;;;;;;0.60;0.60;;;24.70;99.90;;;;;;5019261;28;20086;-68
2022/05/18 12:28:48;;;;;;;1.83;1.55;;;24.80;99.90;;;;;;5024247;28;20061;-68
2022/05/18 12:31:14;;;;;;;0.20;0.20;;;24.60;99.90;;;;;;5027792;28;20091;-69
2022/05/18 12:34:01;;;;;;;2.50;1.17;;;24.60;99.90;;;;;;5022901;28;20141;-68
2022/05/18 12:36:44;;;;;;;1.45;0.45;;;24.50;99.90;;;;;;5018776;28;20049;-67
2022/05/18 12:39:33;;;;;;;0.13;0.13;;;24.80;99.90;;;;;;5017546;28;20056;-68
2022/05/18 12:42:00;;;;;;;3.95;1.08;;;24.50;99.90;;;;;;5020184;28;20049;-68
2022/05/18 12:44:43;;;;;;;0.77;0.65;;;24.20;99.90;;;;;;5026403;28;20061;-68
2022/05/18 12:47:20;;;;;;;0.47;0.47;;;23.90;99.90;;;;;;5020279;28;20065;-68
2022/05/18 12:49:58;;;;;;;0.82;0.82;;;23.70;99.90;;;;;;5014104;28;20607;-68
2022/05/18 12:52:30;;;;;;;0.60;0.47;;;23.60;99.90;;;;;;5019604;28;20061;-68
2022/05/18 12:55:00;;;;;;;0.50;0.50;;;23.70;99.90;;;;;;5019042;28;20057;-68
2022/05/18 12:58:04;;;;;;;1.20;1.13;;;24.00;99.90;;;;;;5028071;28;20136;-68
2022/05/18 13:00:30;;;;;;;2.97;1.50;;;23.80;99.90;;;;;;5020245;28;20065;-68
2022/05/18 13:03:18;;;;;;;1.42;0.75;;;23.70;99.90;;;;;;5014881;28;20050;-68
2022/05/18 13:05:46;;;;;;;0.65;0.35;;;23.50;99.90;;;;;;5022992;28;20057;-68
2022/05/18 13:08:14;;;;;;;0.45;0.28;;;23.30;99.90;;;;;;5028817;28;20040;-68
2022/05/18 13:11:00;;;;;;;0.85;0.85;;;23.20;99.90;;;;;;5021421;28;20122;-67
2022/05/18 13:13:26;;;;;;;2.42;0.85;;;23.00;99.90;;;;;;5019086;28;20063;-68
2022/05/18 13:15:59;;;;;;;0.55;0.28;;;23.00;99.90;;;;;;5018283;28;20493;-68
2022/05/18 13:18:36;;;;;;;0.00;0.00;;;22.80;99.90;;;;;;5019612;28;20041;-68
2022/05/18 13:21:17;;;;;;;0.10;0.10;;;22.80;99.90;;;;;;5028291;28;20053;-68
2022/05/18 13:24:01;;;;;;;0.20;0.20;;;23.00;99.90;;;;;;5028978;28;20041;-68
2022/05/18 13:26:43;;;;;;;0.52;0.52;;;22.90;99.90;;;;;;5012371;28;20049;-67
2022/05/18 13:29:17;;;;;;;3.28;0.40;;;23.00;99.90;;;;;;5020172;28;20053;-67